createdAt,value
2018-12-29T00:00:19.181Z,4.82
2018-12-29T00:01:19.164Z,4.90
2018-12-29T00:02:19.109Z,4.78
2018-12-29T00:03:19.069Z,4.93
2018-12-29T00:04:19.032Z,4.96
2018-12-29T00:05:18.994Z,4.93
2018-12-29T00:06:18.953Z,4.86
2018-12-29T00:07:18.917Z,4.92
2018-12-29T00:08:18.904Z,4.93
2018-12-29T00:09:18.842Z,4.87
2018-12-29T00:10:18.804Z,4.86
2018-12-29T00:11:18.764Z,4.89
2018-12-29T00:12:18.722Z,4.97
2018-12-29T00:13:18.714Z,4.94
2018-12-29T00:14:18.652Z,4.94
2018-12-29T00:15:18.622Z,4.80
2018-12-29T00:16:18.579Z,5.00
2018-12-29T00:17:18.549Z,5.04
2018-12-29T00:18:18.510Z,5.02
2018-12-29T00:19:18.453Z,5.04
2018-12-29T00:20:18.463Z,5.00
2018-12-29T00:21:18.379Z,4.99
2018-12-29T00:22:18.351Z,4.94
2018-12-29T00:23:18.307Z,4.99
2018-12-29T00:24:18.271Z,4.94
2018-12-29T00:25:18.231Z,5.04
2018-12-29T00:26:18.201Z,4.99
2018-12-29T00:27:18.155Z,5.02
2018-12-29T00:28:18.145Z,5.00
2018-12-29T00:29:18.114Z,5.04
2018-12-29T00:30:18.082Z,5.07
2018-12-29T00:31:18.006Z,5.07
2018-12-29T00:32:17.969Z,5.15
2018-12-29T00:33:17.934Z,5.12
2018-12-29T00:34:17.910Z,5.15
2018-12-29T00:35:17.850Z,5.14
2018-12-29T00:36:17.812Z,5.14
2018-12-29T00:37:17.775Z,5.15
2018-12-29T00:38:17.735Z,5.15
2018-12-29T00:39:17.723Z,5.14
2018-12-29T00:40:17.666Z,5.00
2018-12-29T00:41:17.630Z,5.00
2018-12-29T00:42:17.592Z,4.99
2018-12-29T00:43:17.550Z,5.05
2018-12-29T00:44:17.515Z,5.04
2018-12-29T00:45:17.478Z,4.90
2018-12-29T00:46:17.460Z,5.00
2018-12-29T00:47:17.406Z,5.02
2018-12-29T00:48:17.364Z,4.99
2018-12-29T00:49:17.328Z,5.00
2018-12-29T00:50:17.290Z,5.05
2018-12-29T00:51:17.247Z,5.04
2018-12-29T00:52:17.234Z,5.05
2018-12-29T00:53:17.182Z,5.07
2018-12-29T00:54:17.133Z,5.11
2018-12-29T00:55:17.097Z,5.10
2018-12-29T00:56:17.062Z,5.14
2018-12-29T00:57:17.022Z,5.14
2018-12-29T00:58:16.987Z,5.21
2018-12-29T00:59:17.032Z,5.21
2018-12-29T01:00:16.927Z,5.18
2018-12-29T01:01:16.878Z,5.18
2018-12-29T01:02:16.856Z,5.20
2018-12-29T01:03:16.804Z,5.23
2018-12-29T01:04:16.768Z,5.17
2018-12-29T01:05:16.722Z,5.25
2018-12-29T01:06:16.682Z,5.30
2018-12-29T01:07:16.648Z,5.29
2018-12-29T01:08:16.619Z,5.33
2018-12-29T01:09:16.565Z,5.29
2018-12-29T01:10:16.567Z,5.33
2018-12-29T01:11:16.508Z,5.36
2018-12-29T01:12:16.456Z,5.33
2018-12-29T01:13:16.420Z,5.35
2018-12-29T01:14:16.383Z,5.35
2018-12-29T01:15:16.348Z,5.32
2018-12-29T01:16:16.337Z,5.35
2018-12-29T01:17:16.303Z,5.33
2018-12-29T01:18:16.229Z,5.38
2018-12-29T01:19:16.191Z,5.32
2018-12-29T01:20:16.159Z,5.32
2018-12-29T01:21:16.127Z,5.39
2018-12-29T01:22:16.087Z,5.38
2018-12-29T01:23:16.059Z,5.46
2018-12-29T01:24:16.008Z,5.39
2018-12-29T01:25:16.025Z,5.39
2018-12-29T01:26:15.931Z,5.43
2018-12-29T01:27:15.897Z,5.35
2018-12-29T01:28:15.855Z,5.43
2018-12-29T01:29:15.836Z,5.38
2018-12-29T01:30:15.782Z,5.38
2018-12-29T01:31:15.748Z,5.41
2018-12-29T01:32:15.705Z,5.44
2018-12-29T01:33:15.665Z,5.44
2018-12-29T01:34:15.639Z,5.43
2018-12-29T01:35:15.620Z,5.50
2018-12-29T01:36:15.554Z,5.48
2018-12-29T01:37:15.878Z,5.44
2018-12-29T01:38:15.496Z,5.48
2018-12-29T01:39:15.440Z,5.43
2018-12-29T01:40:15.397Z,5.39
2018-12-29T01:41:15.363Z,5.46
2018-12-29T01:42:15.333Z,5.44
2018-12-29T01:43:15.377Z,5.46
2018-12-29T01:44:15.252Z,5.46
2018-12-29T01:45:17.656Z,5.46
2018-12-29T01:46:15.198Z,5.54
2018-12-29T01:47:15.141Z,5.46
2018-12-29T01:48:15.110Z,5.39
2018-12-29T01:49:15.098Z,5.48
2018-12-29T01:50:15.200Z,5.48
2018-12-29T01:51:14.993Z,5.48
2018-12-29T01:52:15.006Z,5.43
2018-12-29T01:53:14.940Z,5.39
2018-12-29T01:54:14.900Z,5.47
2018-12-29T01:55:14.839Z,5.39
2018-12-29T01:56:14.827Z,5.32
2018-12-29T01:57:14.772Z,5.35
2018-12-29T01:58:14.743Z,5.44
2018-12-29T01:59:14.690Z,5.39
2018-12-29T02:00:14.662Z,5.39
2018-12-29T02:01:14.624Z,5.29
2018-12-29T02:02:14.581Z,5.43
2018-12-29T02:03:14.542Z,5.33
2018-12-29T02:04:14.499Z,5.35
2018-12-29T02:05:14.467Z,5.35
2018-12-29T02:06:14.431Z,5.35
2018-12-29T02:07:14.393Z,5.26
2018-12-29T02:08:14.348Z,5.30
2018-12-29T02:09:14.356Z,5.30
2018-12-29T02:10:14.274Z,5.30
2018-12-29T02:11:14.260Z,5.29
2018-12-29T02:12:14.207Z,5.26
2018-12-29T02:13:14.162Z,5.30
2018-12-29T02:14:14.125Z,5.25
2018-12-29T02:15:14.087Z,5.23
2018-12-29T02:16:14.051Z,5.30
2018-12-29T02:17:14.318Z,5.26
2018-12-29T02:18:13.978Z,5.26
2018-12-29T02:19:13.967Z,5.21
2018-12-29T02:20:13.902Z,5.18
2018-12-29T02:21:13.863Z,5.33
2018-12-29T02:22:13.818Z,5.30
2018-12-29T02:23:13.779Z,5.25
2018-12-29T02:24:13.749Z,5.23
2018-12-29T02:25:13.711Z,5.17
2018-12-29T02:26:13.677Z,5.28
2018-12-29T02:27:13.632Z,5.28
2018-12-29T02:28:13.598Z,5.25
2018-12-29T02:29:13.561Z,5.33
2018-12-29T02:30:13.529Z,5.29
2018-12-29T02:31:13.486Z,5.28
2018-12-29T02:32:13.456Z,5.29
2018-12-29T02:33:13.406Z,5.26
2018-12-29T02:34:13.395Z,5.33
2018-12-29T02:35:13.326Z,5.28
2018-12-29T02:36:13.303Z,5.39
2018-12-29T02:37:13.265Z,5.46
2018-12-29T02:38:13.217Z,5.38
2018-12-29T02:39:13.181Z,5.41
2018-12-29T02:40:13.150Z,5.36
2018-12-29T02:41:13.136Z,5.35
2018-12-29T02:42:13.081Z,5.43
2018-12-29T02:43:13.028Z,5.41
2018-12-29T02:44:12.986Z,5.51
2018-12-29T02:45:12.974Z,5.46
2018-12-29T02:46:12.910Z,5.48
2018-12-29T02:47:12.882Z,5.50
2018-12-29T02:48:12.838Z,5.48
2018-12-29T02:49:12.808Z,5.50
2018-12-29T02:50:14.635Z,5.47
2018-12-29T02:51:12.727Z,5.41
2018-12-29T02:52:12.697Z,5.50
2018-12-29T02:53:12.671Z,5.39
2018-12-29T02:54:12.609Z,5.39
2018-12-29T02:55:12.572Z,5.47
2018-12-29T02:56:12.541Z,5.46
2018-12-29T02:57:12.504Z,5.53
2018-12-29T02:58:12.485Z,5.47
2018-12-29T02:59:12.483Z,5.46
2018-12-29T03:00:12.394Z,5.46
2018-12-29T03:01:12.347Z,5.54
2018-12-29T03:02:12.318Z,5.51
2018-12-29T03:03:12.273Z,5.62
2018-12-29T03:04:12.286Z,5.47
2018-12-29T03:05:12.229Z,5.44
2018-12-29T03:06:12.165Z,5.44
2018-12-29T03:07:12.149Z,5.47
2018-12-29T03:08:12.130Z,5.44
2018-12-29T03:09:12.081Z,5.48
2018-12-29T03:10:12.029Z,5.46
2018-12-29T03:11:12.263Z,5.46
2018-12-29T03:12:11.935Z,5.54
2018-12-29T03:13:12.243Z,5.43
2018-12-29T03:14:11.987Z,5.39
2018-12-29T03:15:11.837Z,5.39
2018-12-29T03:16:11.791Z,5.43
2018-12-29T03:17:11.752Z,5.44
2018-12-29T03:18:11.715Z,5.32
2018-12-29T03:19:11.675Z,5.38
2018-12-29T03:20:11.640Z,5.36
2018-12-29T03:21:11.615Z,5.44
2018-12-29T03:22:11.578Z,5.38
2018-12-29T03:23:11.534Z,5.39
2018-12-29T03:24:11.499Z,5.30
2018-12-29T03:25:11.455Z,5.36
2018-12-29T03:26:11.415Z,5.38
2018-12-29T03:27:11.402Z,5.30
2018-12-29T03:28:12.047Z,5.36
2018-12-29T03:29:12.047Z,5.21
2018-12-29T03:30:11.275Z,5.29
2018-12-29T03:31:12.123Z,5.28
2018-12-29T03:32:11.199Z,5.21
2018-12-29T03:33:11.154Z,5.20
2018-12-29T03:34:11.114Z,5.18
2018-12-29T03:35:11.074Z,5.18
2018-12-29T03:36:11.036Z,5.18
2018-12-29T03:37:11.000Z,5.14
2018-12-29T03:38:10.959Z,5.14
2018-12-29T03:39:10.922Z,5.18
2018-12-29T03:40:10.887Z,5.23
2018-12-29T03:41:10.861Z,5.20
2018-12-29T03:42:10.816Z,5.17
2018-12-29T03:43:10.803Z,5.18
2018-12-29T03:44:10.724Z,5.14
2018-12-29T03:45:10.689Z,5.21
2018-12-29T03:46:10.651Z,5.10
2018-12-29T03:47:10.632Z,5.20
2018-12-29T03:48:10.580Z,5.23
2018-12-29T03:49:10.544Z,5.23
2018-12-29T03:50:10.505Z,5.18
2018-12-29T03:51:10.463Z,5.08
2018-12-29T03:52:10.429Z,5.15
2018-12-29T03:53:10.415Z,5.10
2018-12-29T03:54:10.367Z,5.15
2018-12-29T03:55:10.330Z,5.18
2018-12-29T03:56:10.276Z,5.17
2018-12-29T03:57:10.240Z,5.17
2018-12-29T03:58:10.196Z,5.17
2018-12-29T03:59:10.162Z,5.23
2018-12-29T04:00:10.135Z,5.17
2018-12-29T04:01:10.105Z,5.17
2018-12-29T04:02:10.051Z,5.17
2018-12-29T04:03:10.007Z,5.17
2018-12-29T04:04:09.975Z,5.17
2018-12-29T04:05:09.930Z,5.14
2018-12-29T04:06:09.896Z,5.14
2018-12-29T04:07:09.866Z,5.12
2018-12-29T04:08:09.819Z,5.14
2018-12-29T04:09:09.780Z,5.11
2018-12-29T04:10:09.742Z,5.11
2018-12-29T04:11:09.705Z,5.11
2018-12-29T04:12:09.707Z,5.08
2018-12-29T04:13:09.628Z,5.14
2018-12-29T04:14:09.606Z,5.14
2018-12-29T04:15:09.571Z,5.08
2018-12-29T04:16:09.511Z,5.12
2018-12-29T04:17:09.487Z,5.07
2018-12-29T04:18:09.434Z,5.07
2018-12-29T04:19:09.401Z,5.04
2018-12-29T04:20:09.361Z,5.05
2018-12-29T04:21:09.319Z,5.05
2018-12-29T04:22:09.287Z,5.02
2018-12-29T04:23:09.254Z,5.07
2018-12-29T04:24:09.213Z,5.00
2018-12-29T04:25:09.172Z,5.04
2018-12-29T04:26:09.136Z,5.05
2018-12-29T04:27:09.095Z,5.05
2018-12-29T04:28:09.062Z,5.00
2018-12-29T04:29:09.048Z,5.04
2018-12-29T04:30:09.016Z,5.02
2018-12-29T04:31:08.935Z,5.04
2018-12-29T04:32:09.222Z,5.02
2018-12-29T04:33:08.865Z,5.00
2018-12-29T04:34:08.829Z,4.96
2018-12-29T04:35:08.790Z,4.99
2018-12-29T04:36:08.754Z,4.99
2018-12-29T04:37:08.712Z,4.89
2018-12-29T04:38:08.675Z,4.93
2018-12-29T04:39:08.639Z,4.97
2018-12-29T04:40:08.599Z,5.00
2018-12-29T04:41:08.630Z,4.96
2018-12-29T04:42:08.528Z,4.97
2018-12-29T04:43:08.486Z,4.96
2018-12-29T04:44:08.442Z,4.96
2018-12-29T04:45:08.407Z,4.93
2018-12-29T04:46:08.371Z,4.90
2018-12-29T04:47:08.875Z,4.94
2018-12-29T04:48:08.303Z,4.90
2018-12-29T04:49:08.258Z,5.02
2018-12-29T04:50:08.214Z,4.94
2018-12-29T04:51:08.175Z,4.94
2018-12-29T04:53:21.497Z,4.93
2018-12-29T04:54:21.430Z,4.99
2018-12-29T04:55:21.393Z,4.93
2018-12-29T04:56:21.354Z,4.93
2018-12-29T04:57:21.329Z,4.96
2018-12-29T04:58:21.278Z,5.05
2018-12-29T04:59:21.242Z,4.90
2018-12-29T05:00:21.214Z,5.04
2018-12-29T05:01:21.160Z,5.04
2018-12-29T05:02:21.125Z,5.04
2018-12-29T05:03:21.081Z,5.02
2018-12-29T05:04:21.048Z,4.87
2018-12-29T05:05:21.032Z,4.96
2018-12-29T05:06:20.991Z,4.94
2018-12-29T05:07:20.933Z,4.94
2018-12-29T05:08:20.932Z,5.02
2018-12-29T05:09:20.929Z,4.94
2018-12-29T05:10:20.842Z,4.99
2018-12-29T05:11:20.780Z,5.02
2018-12-29T05:12:20.809Z,4.99
2018-12-29T05:13:20.720Z,5.00
2018-12-29T05:14:20.668Z,4.99
2018-12-29T05:15:20.629Z,5.04
2018-12-29T05:16:20.599Z,5.00
2018-12-29T05:17:20.578Z,5.07
2018-12-29T05:18:20.985Z,5.00
2018-12-29T05:19:20.985Z,4.99
2018-12-29T05:20:20.435Z,4.97
2018-12-29T05:21:20.413Z,5.02
2018-12-29T05:22:20.358Z,4.97
2018-12-29T05:23:20.362Z,5.00
2018-12-29T05:24:20.288Z,4.97
2018-12-29T05:25:20.245Z,4.97
2018-12-29T05:26:20.235Z,5.02
2018-12-29T05:27:20.167Z,4.92
2018-12-29T05:28:20.135Z,4.97
2018-12-29T05:29:20.092Z,5.04
2018-12-29T05:30:20.119Z,4.94
2018-12-29T05:31:20.027Z,4.97
2018-12-29T05:32:19.979Z,4.97
2018-12-29T05:33:19.944Z,4.93
2018-12-29T05:34:19.907Z,4.94
2018-12-29T05:35:19.862Z,4.97
2018-12-29T05:36:19.827Z,5.02
2018-12-29T05:37:19.786Z,4.99
2018-12-29T05:38:19.763Z,5.00
2018-12-29T05:39:19.710Z,5.00
2018-12-29T05:40:19.671Z,5.00
2018-12-29T05:41:19.635Z,5.02
2018-12-29T05:42:19.605Z,5.02
2018-12-29T05:43:19.582Z,5.02
2018-12-29T05:44:19.523Z,4.99
2018-12-29T05:45:19.489Z,5.00
2018-12-29T05:46:20.587Z,5.04
2018-12-29T05:47:19.445Z,5.02
2018-12-29T05:48:19.367Z,5.10
2018-12-29T05:49:19.324Z,5.11
2018-12-29T05:50:19.289Z,5.11
2018-12-29T05:51:19.251Z,5.11
2018-12-29T05:52:19.271Z,5.12
2018-12-29T05:53:19.176Z,5.07
2018-12-29T05:54:19.139Z,5.05
2018-12-29T05:55:19.134Z,5.08
2018-12-29T05:56:19.223Z,5.05
2018-12-29T05:57:19.029Z,5.02
2018-12-29T05:58:18.985Z,5.08
2018-12-29T05:59:18.947Z,4.99
2018-12-29T06:00:18.909Z,5.02
2018-12-29T06:01:18.866Z,5.00
2018-12-29T06:02:18.829Z,5.05
2018-12-29T06:03:18.835Z,5.05
2018-12-29T06:04:18.756Z,5.02
2018-12-29T06:05:18.716Z,5.00
2018-12-29T06:06:18.681Z,5.12
2018-12-29T06:07:18.682Z,5.12
2018-12-29T06:08:18.594Z,5.08
2018-12-29T06:09:18.559Z,5.11
2018-12-29T06:10:18.534Z,5.14
2018-12-29T06:11:18.504Z,5.10
2018-12-29T06:12:18.450Z,5.17
2018-12-29T06:13:18.451Z,5.20
2018-12-29T06:14:18.366Z,5.18
2018-12-29T06:15:18.350Z,5.15
2018-12-29T06:16:18.302Z,5.23
2018-12-29T06:17:18.257Z,5.20
2018-12-29T06:18:18.221Z,5.18
2018-12-29T06:19:18.203Z,5.30
2018-12-29T06:20:18.146Z,5.28
2018-12-29T06:21:18.119Z,5.33
2018-12-29T06:22:18.070Z,5.28
2018-12-29T06:23:18.039Z,5.28
2018-12-29T06:24:18.010Z,5.32
2018-12-29T06:25:17.975Z,5.26
2018-12-29T06:26:17.919Z,5.28
2018-12-29T06:27:17.879Z,5.32
2018-12-29T06:28:17.840Z,5.29
2018-12-29T06:29:17.801Z,5.36
2018-12-29T06:30:17.776Z,5.35
2018-12-29T06:31:17.723Z,5.35
2018-12-29T06:32:17.687Z,5.35
2018-12-29T06:33:17.651Z,5.43
2018-12-29T06:34:17.612Z,5.44
2018-12-29T06:35:17.879Z,5.41
2018-12-29T06:36:17.541Z,5.32
2018-12-29T06:37:17.499Z,5.43
2018-12-29T06:38:17.461Z,5.35
2018-12-29T06:39:17.424Z,5.39
2018-12-29T06:40:17.384Z,5.41
2018-12-29T06:41:17.347Z,5.46
2018-12-29T06:42:17.316Z,5.30
2018-12-29T06:43:18.057Z,5.41
2018-12-29T06:44:17.236Z,5.35
2018-12-29T06:45:17.198Z,5.39
2018-12-29T06:46:17.158Z,5.41
2018-12-29T06:47:17.196Z,5.41
2018-12-29T06:48:17.192Z,5.35
2018-12-29T06:49:17.046Z,5.46
2018-12-29T06:50:16.999Z,5.39
2018-12-29T06:51:16.962Z,5.36
2018-12-29T06:52:16.930Z,5.41
2018-12-29T06:53:16.891Z,5.38
2018-12-29T06:54:16.859Z,5.35
2018-12-29T06:55:16.812Z,5.39
2018-12-29T06:56:16.777Z,5.41
2018-12-29T06:57:16.739Z,5.41
2018-12-29T06:58:16.703Z,5.39
2018-12-29T06:59:16.663Z,5.41
2018-12-29T07:00:16.624Z,5.43
2018-12-29T07:01:16.587Z,5.44
2018-12-29T07:02:16.549Z,5.36
2018-12-29T07:03:16.514Z,5.39
2018-12-29T07:04:16.472Z,5.41
2018-12-29T07:05:16.437Z,5.39
2018-12-29T07:06:16.397Z,5.48
2018-12-29T07:07:16.645Z,5.38
2018-12-29T07:08:16.321Z,5.35
2018-12-29T07:09:16.283Z,5.48
2018-12-29T07:10:16.243Z,5.48
2018-12-29T07:11:16.209Z,5.50
2018-12-29T07:12:16.171Z,5.48
2018-12-29T07:13:16.134Z,5.44
2018-12-29T07:14:16.093Z,5.46
2018-12-29T07:15:16.053Z,5.48
2018-12-29T07:16:16.016Z,5.44
2018-12-29T07:17:15.982Z,5.47
2018-12-29T07:18:15.942Z,5.44
2018-12-29T07:19:15.904Z,5.53
2018-12-29T07:20:15.892Z,5.48
2018-12-29T07:21:15.830Z,5.50
2018-12-29T07:22:15.786Z,5.47
2018-12-29T07:23:15.868Z,5.47
2018-12-29T07:24:15.713Z,5.46
2018-12-29T07:25:15.673Z,5.38
2018-12-29T07:26:15.634Z,5.48
2018-12-29T07:27:15.601Z,5.50
2018-12-29T07:28:15.561Z,5.48
2018-12-29T07:29:15.525Z,5.48
2018-12-29T07:30:15.486Z,5.54
2018-12-29T07:31:15.445Z,5.47
2018-12-29T07:32:15.409Z,5.56
2018-12-29T07:33:15.369Z,5.54
2018-12-29T07:34:15.332Z,5.54
2018-12-29T07:35:16.820Z,5.56
2018-12-29T07:36:15.258Z,5.53
2018-12-29T07:37:15.221Z,5.57
2018-12-29T07:38:15.181Z,5.61
2018-12-29T07:39:15.141Z,5.61
2018-12-29T07:40:15.106Z,5.66
2018-12-29T07:41:15.069Z,5.68
2018-12-29T07:42:15.053Z,5.62
2018-12-29T07:43:14.992Z,5.64
2018-12-29T07:44:14.955Z,5.66
2018-12-29T07:45:14.916Z,5.53
2018-12-29T07:46:15.259Z,5.62
2018-12-29T07:47:14.842Z,5.56
2018-12-29T07:48:14.801Z,5.61
2018-12-29T07:49:14.766Z,5.59
2018-12-29T07:50:14.729Z,5.64
2018-12-29T07:51:14.690Z,5.64
2018-12-29T07:52:14.652Z,5.61
2018-12-29T07:53:14.616Z,5.62
2018-12-29T07:54:14.581Z,5.65
2018-12-29T07:55:14.542Z,5.68
2018-12-29T07:56:14.499Z,5.69
2018-12-29T07:57:14.468Z,5.59
2018-12-29T07:58:14.435Z,5.65
2018-12-29T07:59:14.391Z,5.61
2018-12-29T08:00:14.864Z,5.71
2018-12-29T08:01:14.315Z,5.69
2018-12-29T08:02:14.275Z,5.64
2018-12-29T08:03:14.239Z,5.71
2018-12-29T08:04:14.204Z,5.72
2018-12-29T08:05:14.165Z,5.72
2018-12-29T08:06:14.124Z,5.71
2018-12-29T08:07:14.087Z,5.73
2018-12-29T08:08:14.051Z,5.64
2018-12-29T08:09:14.015Z,5.64
2018-12-29T08:10:13.974Z,5.76
2018-12-29T08:11:13.935Z,5.73
2018-12-29T08:12:13.961Z,5.79
2018-12-29T08:13:13.862Z,5.79
2018-12-29T08:14:13.824Z,5.80
2018-12-29T08:15:13.802Z,5.76
2018-12-29T08:16:13.750Z,5.79
2018-12-29T08:17:13.711Z,5.79
2018-12-29T08:18:13.673Z,5.73
2018-12-29T08:19:13.636Z,5.79
2018-12-29T08:20:13.597Z,5.75
2018-12-29T08:21:13.560Z,5.79
2018-12-29T08:22:13.523Z,5.83
2018-12-29T08:23:13.489Z,5.87
2018-12-29T08:24:13.447Z,5.83
2018-12-29T08:25:13.410Z,5.80
2018-12-29T08:26:13.372Z,5.83
2018-12-29T08:27:13.334Z,5.84
2018-12-29T08:28:13.312Z,5.84
2018-12-29T08:29:13.260Z,5.86
2018-12-29T08:30:13.223Z,5.87
2018-12-29T08:31:13.182Z,5.94
2018-12-29T08:32:13.144Z,5.93
2018-12-29T08:33:13.106Z,5.97
2018-12-29T08:34:13.071Z,5.93
2018-12-29T08:35:13.033Z,5.93
2018-12-29T08:36:12.996Z,5.86
2018-12-29T08:37:12.956Z,5.84
2018-12-29T08:38:12.921Z,5.89
2018-12-29T08:39:12.881Z,5.97
2018-12-29T08:40:12.848Z,5.91
2018-12-29T08:41:12.806Z,5.91
2018-12-29T08:42:12.770Z,5.93
2018-12-29T08:43:12.733Z,5.87
2018-12-29T08:44:12.694Z,5.93
2018-12-29T08:45:12.656Z,5.91
2018-12-29T08:46:13.485Z,5.99
2018-12-29T08:47:12.579Z,6.01
2018-12-29T08:48:13.489Z,6.09
2018-12-29T08:49:12.505Z,5.94
2018-12-29T08:50:13.212Z,6.05
2018-12-29T08:51:12.428Z,6.08
2018-12-29T08:52:12.394Z,6.02
2018-12-29T08:53:12.356Z,6.05
2018-12-29T08:54:12.315Z,6.07
2018-12-29T08:55:12.279Z,6.05
2018-12-29T08:56:12.242Z,6.05
2018-12-29T08:57:12.206Z,6.08
2018-12-29T08:58:12.166Z,6.09
2018-12-29T08:59:12.129Z,6.08
2018-12-29T09:00:12.090Z,6.05
2018-12-29T09:01:12.051Z,6.14
2018-12-29T09:02:12.021Z,6.16
2018-12-29T09:03:11.981Z,6.09
2018-12-29T09:04:11.942Z,6.09
2018-12-29T09:05:11.906Z,6.09
2018-12-29T09:06:11.869Z,6.11
2018-12-29T09:07:11.829Z,6.22
2018-12-29T09:08:11.786Z,6.14
2018-12-29T09:09:11.756Z,6.19
2018-12-29T09:10:11.778Z,6.19
2018-12-29T09:11:11.680Z,6.19
2018-12-29T09:12:11.644Z,6.12
2018-12-29T09:13:11.764Z,6.19
2018-12-29T09:14:11.567Z,6.08
2018-12-29T09:15:11.545Z,6.20
2018-12-29T09:16:11.496Z,6.20
2018-12-29T09:17:12.237Z,6.12
2018-12-29T09:18:11.417Z,6.20
2018-12-29T09:19:12.076Z,6.17
2018-12-29T09:20:11.344Z,6.17
2018-12-29T09:21:11.310Z,6.26
2018-12-29T09:22:11.273Z,6.26
2018-12-29T09:23:11.234Z,6.17
2018-12-29T09:24:11.192Z,6.20
2018-12-29T09:25:11.151Z,6.17
2018-12-29T09:26:11.119Z,6.20
2018-12-29T09:27:11.086Z,6.24
2018-12-29T09:28:11.048Z,6.30
2018-12-29T09:29:11.008Z,6.17
2018-12-29T09:30:10.987Z,6.22
2018-12-29T09:31:10.934Z,6.26
2018-12-29T09:32:10.900Z,6.27
2018-12-29T09:33:10.858Z,6.24
2018-12-29T09:34:10.819Z,6.26
2018-12-29T09:35:10.783Z,6.22
2018-12-29T09:36:10.760Z,6.27
2018-12-29T09:37:10.710Z,6.20
2018-12-29T09:38:10.668Z,6.28
2018-12-29T09:39:10.634Z,6.28
2018-12-29T09:40:10.597Z,6.30
2018-12-29T09:41:10.559Z,6.35
2018-12-29T09:42:10.527Z,6.36
2018-12-29T09:43:10.489Z,6.35
2018-12-29T09:44:10.451Z,6.33
2018-12-29T09:45:10.409Z,6.38
2018-12-29T09:46:10.365Z,6.35
2018-12-29T09:47:10.336Z,6.36
2018-12-29T09:48:10.310Z,6.31
2018-12-29T09:49:10.264Z,6.38
2018-12-29T09:50:10.222Z,6.41
2018-12-29T09:51:10.187Z,6.33
2018-12-29T09:52:10.157Z,6.39
2018-12-29T09:53:10.112Z,6.31
2018-12-29T09:54:10.075Z,6.33
2018-12-29T09:55:10.035Z,6.42
2018-12-29T09:56:10.001Z,6.45
2018-12-29T09:57:10.320Z,6.44
2018-12-29T09:58:09.926Z,6.39
2018-12-29T09:59:09.888Z,6.45
2018-12-29T10:00:09.853Z,6.48
2018-12-29T10:01:09.812Z,6.42
2018-12-29T10:02:09.777Z,6.62
2018-12-29T10:03:10.288Z,6.59
2018-12-29T10:04:09.701Z,6.60
2018-12-29T10:05:09.664Z,6.54
2018-12-29T10:06:09.623Z,6.63
2018-12-29T10:07:09.593Z,6.67
2018-12-29T10:08:09.598Z,6.64
2018-12-29T10:09:09.518Z,6.66
2018-12-29T10:10:09.480Z,6.77
2018-12-29T10:11:09.443Z,6.74
2018-12-29T10:12:09.406Z,6.69
2018-12-29T10:13:09.365Z,6.72
2018-12-29T10:14:09.327Z,6.72
2018-12-29T10:15:09.293Z,6.69
2018-12-29T10:16:09.257Z,6.67
2018-12-29T10:17:09.218Z,6.72
2018-12-29T10:18:09.183Z,6.70
2018-12-29T10:19:09.151Z,6.75
2018-12-29T10:20:09.106Z,6.82
2018-12-29T10:21:09.108Z,6.87
2018-12-29T10:22:09.034Z,6.82
2018-12-29T10:23:08.998Z,6.81
2018-12-29T10:24:08.961Z,6.87
2018-12-29T10:25:08.922Z,6.88
2018-12-29T10:26:08.884Z,6.81
2018-12-29T10:27:08.892Z,6.97
2018-12-29T10:28:08.822Z,6.95
2018-12-29T10:29:08.786Z,6.95
2018-12-29T10:30:08.742Z,6.93
2018-12-29T10:31:08.694Z,6.99
2018-12-29T10:32:08.668Z,7.03
2018-12-29T10:33:08.630Z,7.07
2018-12-29T10:34:08.618Z,6.92
2018-12-29T10:35:08.560Z,7.07
2018-12-29T10:36:08.520Z,7.10
2018-12-29T10:37:08.485Z,7.07
2018-12-29T10:38:08.446Z,7.00
2018-12-29T10:39:08.412Z,7.23
2018-12-29T10:40:08.593Z,7.21
2018-12-29T10:41:08.335Z,7.31
2018-12-29T10:42:08.299Z,7.17
2018-12-29T10:43:08.263Z,7.18
2018-12-29T10:44:08.227Z,7.31
2018-12-29T10:45:08.191Z,7.29
2018-12-29T10:46:08.153Z,7.28
2018-12-29T10:47:08.118Z,7.45
2018-12-29T10:48:08.083Z,7.40
2018-12-29T10:49:08.046Z,7.42
2018-12-29T10:50:08.006Z,7.43
2018-12-29T10:51:07.970Z,7.45
2018-12-29T10:52:07.932Z,7.45
2018-12-29T10:53:07.897Z,7.53
2018-12-29T10:54:07.854Z,7.50
2018-12-29T10:55:07.826Z,7.40
2018-12-29T10:56:07.790Z,7.47
2018-12-29T10:57:07.752Z,7.45
2018-12-29T10:58:07.716Z,7.53
2018-12-29T10:59:07.679Z,7.40
2018-12-29T11:00:07.639Z,7.45
2018-12-29T11:01:07.619Z,7.45
2018-12-29T11:02:07.570Z,7.48
2018-12-29T11:03:07.531Z,7.45
2018-12-29T11:04:07.512Z,7.38
2018-12-29T11:05:07.459Z,7.42
2018-12-29T11:06:07.428Z,7.42
2018-12-29T11:07:07.386Z,7.48
2018-12-29T11:08:07.347Z,7.40
2018-12-29T11:09:07.315Z,7.47
2018-12-29T11:10:07.277Z,7.50
2018-12-29T11:11:07.240Z,7.53
2018-12-29T11:12:07.203Z,7.54
2018-12-29T11:13:07.166Z,7.57
2018-12-29T11:14:07.129Z,7.56
2018-12-29T11:15:07.096Z,7.58
2018-12-29T11:16:07.059Z,7.54
2018-12-29T11:17:07.024Z,7.56
2018-12-29T11:18:06.988Z,7.54
2018-12-29T11:19:06.954Z,7.63
2018-12-29T11:20:06.912Z,7.56
2018-12-29T11:21:06.878Z,7.53
2018-12-29T11:22:06.843Z,7.70
2018-12-29T11:23:06.807Z,7.63
2018-12-29T11:24:06.773Z,7.77
2018-12-29T11:25:06.734Z,7.82
2018-12-29T11:26:06.698Z,7.88
2018-12-29T11:27:06.661Z,8.03
2018-12-29T11:28:06.623Z,8.03
2018-12-29T11:29:06.589Z,8.03
2018-12-29T11:30:06.549Z,8.03
2018-12-29T11:31:06.517Z,8.12
2018-12-29T11:32:06.481Z,8.15
2018-12-29T11:33:06.446Z,8.27
2018-12-29T11:34:06.412Z,8.27
2018-12-29T11:35:06.374Z,8.38
2018-12-29T11:36:06.340Z,8.38
2018-12-29T11:37:06.303Z,8.45
2018-12-29T11:38:06.266Z,8.53
2018-12-29T11:39:06.230Z,8.49
2018-12-29T11:40:06.195Z,8.55
2018-12-29T11:41:06.198Z,8.53
2018-12-29T11:42:06.124Z,8.55
2018-12-29T11:43:06.088Z,8.52
2018-12-29T11:44:06.055Z,8.45
2018-12-29T11:45:06.016Z,8.49
2018-12-29T11:46:05.977Z,8.38
2018-12-29T11:47:05.947Z,8.34
2018-12-29T11:48:05.913Z,8.37
2018-12-29T11:49:05.892Z,8.28
2018-12-29T11:50:05.833Z,8.38
2018-12-29T11:51:05.805Z,8.31
2018-12-29T11:52:05.771Z,8.27
2018-12-29T11:53:05.734Z,8.15
2018-12-29T11:54:05.760Z,8.16
2018-12-29T11:55:05.661Z,8.15
2018-12-29T11:56:05.624Z,8.10
2018-12-29T11:57:05.614Z,8.09
2018-12-29T11:58:05.553Z,8.12
2018-12-29T11:59:05.519Z,8.00
2018-12-29T12:00:05.487Z,8.01
2018-12-29T12:01:05.475Z,8.03
2018-12-29T12:02:05.439Z,7.93
2018-12-29T12:03:05.373Z,7.95
2018-12-29T12:04:05.341Z,7.90
2018-12-29T12:05:05.306Z,7.91
2018-12-29T12:06:05.266Z,7.93
2018-12-29T12:07:05.237Z,7.91
2018-12-29T12:08:05.195Z,7.85
2018-12-29T12:09:05.162Z,7.82
2018-12-29T12:10:05.124Z,7.80
2018-12-29T12:11:05.087Z,7.75
2018-12-29T12:12:05.053Z,7.83
2018-12-29T12:13:05.015Z,7.82
2018-12-29T12:14:05.114Z,7.80
2018-12-29T12:15:04.936Z,7.85
2018-12-29T12:16:04.907Z,7.75
2018-12-29T12:17:04.872Z,7.77
2018-12-29T12:18:04.836Z,7.91
2018-12-29T12:19:04.801Z,7.91
2018-12-29T12:20:04.786Z,7.93
2018-12-29T12:21:04.728Z,8.00
2018-12-29T12:22:05.489Z,8.03
2018-12-29T12:23:04.654Z,8.05
2018-12-29T12:24:04.673Z,8.05
2018-12-29T12:25:04.602Z,8.12
2018-12-29T12:26:04.546Z,8.15
2018-12-29T12:27:04.535Z,8.19
2018-12-29T12:28:04.473Z,8.24
2018-12-29T12:29:04.439Z,8.13
2018-12-29T12:30:04.401Z,8.19
2018-12-29T12:31:04.365Z,8.31
2018-12-29T12:32:04.331Z,8.30
2018-12-29T12:33:04.296Z,8.28
2018-12-29T12:34:04.258Z,8.30
2018-12-29T12:35:04.223Z,8.33
2018-12-29T12:36:04.191Z,8.28
2018-12-29T12:37:04.150Z,8.27
2018-12-29T12:38:04.114Z,8.31
2018-12-29T12:39:04.077Z,8.36
2018-12-29T12:40:04.047Z,8.34
2018-12-29T12:41:04.001Z,8.38
2018-12-29T12:42:04.047Z,8.33
2018-12-29T12:43:03.936Z,8.28
2018-12-29T12:44:03.899Z,8.37
2018-12-29T12:45:03.864Z,8.31
2018-12-29T12:46:03.828Z,8.20
2018-12-29T12:47:03.793Z,8.34
2018-12-29T12:48:05.387Z,8.28
2018-12-29T12:49:03.722Z,8.18
2018-12-29T12:50:03.682Z,8.27
2018-12-29T12:51:03.647Z,8.27
2018-12-29T12:52:03.610Z,8.26
2018-12-29T12:53:03.577Z,8.19
2018-12-29T12:54:03.540Z,8.34
2018-12-29T12:55:03.503Z,8.31
2018-12-29T12:56:03.468Z,8.28
2018-12-29T12:57:03.433Z,8.30
2018-12-29T12:58:03.475Z,8.34
2018-12-29T12:59:03.360Z,8.31
2018-12-29T13:00:03.327Z,8.36
2018-12-29T13:01:03.288Z,8.31
2018-12-29T13:02:03.252Z,8.31
2018-12-29T13:03:03.219Z,8.33
2018-12-29T13:04:03.182Z,8.28
2018-12-29T13:05:03.145Z,8.37
2018-12-29T13:06:03.110Z,8.23
2018-12-29T13:07:03.068Z,8.34
2018-12-29T13:08:03.040Z,8.28
2018-12-29T13:09:03.002Z,8.31
2018-12-29T13:10:02.962Z,8.34
2018-12-29T13:11:02.926Z,8.28
2018-12-29T13:12:02.899Z,8.37
2018-12-29T13:13:02.863Z,8.30
2018-12-29T13:14:02.816Z,8.33
2018-12-29T13:15:02.785Z,8.26
2018-12-29T13:16:02.750Z,8.33
2018-12-29T13:17:02.714Z,8.30
2018-12-29T13:18:02.677Z,8.27
2018-12-29T13:19:02.644Z,8.30